createdAt,value
2018-07-12T00:00:28.787Z,96.99
2018-07-12T00:03:30.880Z,96.70
2018-07-12T00:06:32.439Z,96.57
2018-07-12T00:09:34.464Z,97.05
2018-07-12T00:12:36.544Z,96.87
2018-07-12T00:15:38.648Z,96.95
2018-07-12T00:18:40.677Z,96.65
2018-07-12T00:21:42.763Z,96.50
2018-07-12T00:24:44.343Z,96.70
2018-07-12T00:27:46.326Z,96.61
2018-07-12T00:30:48.446Z,96.88
2018-07-12T00:33:50.531Z,96.72
2018-07-12T00:36:52.703Z,97.67
2018-07-12T00:39:54.683Z,97.54
2018-07-12T00:42:56.646Z,97.92
2018-07-12T00:45:58.696Z,98.38
2018-07-12T00:49:00.765Z,97.80
2018-07-12T00:52:02.718Z,98.14
2018-07-12T00:55:04.810Z,98.26
2018-07-12T00:58:06.436Z,98.66
2018-07-12T01:01:08.506Z,98.97
2018-07-12T01:04:09.984Z,99.14
2018-07-12T01:07:12.056Z,99.39
2018-07-12T01:10:14.044Z,99.31
2018-07-12T01:13:16.157Z,100.00
2018-07-12T01:16:18.169Z,99.71
2018-07-12T01:19:20.299Z,99.73
2018-07-12T01:22:22.317Z,99.95
2018-07-12T01:25:24.290Z,99.96
2018-07-12T01:28:26.392Z,100.00
2018-07-12T01:31:28.494Z,100.00
2018-07-12T01:34:30.043Z,100.00
2018-07-12T01:37:32.074Z,100.00
2018-07-12T01:40:33.680Z,100.00
2018-07-12T01:43:35.340Z,100.00
2018-07-12T01:46:36.924Z,99.63
2018-07-12T01:49:39.012Z,100.00
2018-07-12T01:52:40.996Z,100.00
2018-07-12T01:55:43.494Z,99.83
2018-07-12T01:58:45.470Z,99.30
2018-07-12T02:01:47.501Z,99.67
2018-07-12T02:04:49.545Z,99.68
2018-07-12T02:07:51.142Z,99.27
2018-07-12T02:10:52.667Z,99.93
2018-07-12T02:13:54.243Z,99.67
2018-07-12T02:16:56.254Z,99.85
2018-07-12T02:19:58.350Z,99.21
2018-07-12T02:23:00.440Z,99.36
2018-07-12T02:26:02.052Z,98.47
2018-07-12T02:29:03.542Z,99.33
2018-07-12T02:32:05.630Z,99.21
2018-07-12T02:35:08.749Z,99.23
2018-07-12T02:38:10.770Z,98.77
2018-07-12T02:41:12.759Z,98.94
2018-07-12T02:44:14.292Z,99.12
2018-07-12T02:47:16.548Z,99.69
2018-07-12T02:50:18.610Z,98.68
2018-07-12T02:53:20.129Z,99.06
2018-07-12T02:56:22.236Z,99.09
2018-07-12T02:59:25.366Z,99.19
2018-07-12T03:02:27.406Z,99.26
2018-07-12T03:05:29.457Z,98.87
2018-07-12T03:08:31.571Z,99.25
2018-07-12T03:11:33.754Z,98.98
2018-07-12T03:14:35.907Z,99.07
2018-07-12T03:17:37.923Z,99.26
2018-07-12T03:20:40.037Z,99.05
2018-07-12T03:23:42.027Z,99.10
2018-07-12T03:26:44.169Z,99.69
2018-07-12T03:29:46.189Z,99.32
2018-07-12T03:32:48.285Z,99.44
2018-07-12T03:35:50.297Z,99.37
2018-07-12T03:38:52.319Z,99.35
2018-07-12T03:41:53.999Z,99.51
2018-07-12T03:44:56.034Z,99.82
2018-07-12T03:47:58.178Z,99.65
2018-07-12T03:50:59.785Z,99.61
2018-07-12T03:54:01.917Z,99.04
2018-07-12T03:57:03.913Z,99.56
2018-07-12T04:00:05.929Z,99.32
2018-07-12T04:03:08.034Z,99.43
2018-07-12T04:06:10.130Z,99.94
2018-07-12T04:09:12.131Z,99.79
2018-07-12T04:12:13.777Z,98.97
2018-07-12T04:15:15.877Z,99.25
2018-07-12T04:18:18.059Z,100.00
2018-07-12T04:21:19.734Z,99.60
2018-07-12T04:24:21.722Z,99.70
2018-07-12T04:27:23.644Z,98.36
2018-07-12T04:30:25.666Z,91.22
2018-07-12T04:33:27.657Z,80.55
2018-07-12T04:36:29.804Z,74.34
2018-07-12T04:39:31.816Z,71.58
2018-07-12T04:42:33.782Z,74.95
2018-07-12T04:45:35.861Z,80.63
2018-07-12T04:48:37.969Z,85.34
2018-07-12T04:51:40.236Z,87.26
2018-07-12T04:54:42.313Z,90.00
2018-07-12T04:57:44.355Z,90.81
2018-07-12T05:00:46.352Z,90.42
2018-07-12T05:03:48.301Z,90.03
2018-07-12T05:06:49.939Z,90.84
2018-07-12T05:09:53.001Z,90.63
2018-07-12T05:12:55.117Z,90.91
2018-07-12T05:15:57.342Z,89.36
2018-07-12T05:18:59.541Z,89.88
2018-07-12T05:22:01.738Z,89.91
2018-07-12T05:25:05.407Z,88.89
2018-07-12T05:28:07.083Z,87.07
2018-07-12T05:31:12.133Z,87.26
2018-07-12T05:34:13.638Z,85.93
2018-07-12T05:37:17.767Z,85.95
2018-07-12T05:40:20.851Z,85.76
2018-07-12T05:43:25.015Z,87.16
2018-07-12T05:46:28.216Z,91.69
2018-07-12T05:49:32.329Z,91.30
2018-07-12T05:52:35.526Z,89.99
2018-07-12T05:55:38.551Z,89.83
2018-07-12T05:58:42.762Z,88.01
2018-07-12T06:01:57.398Z,85.24
2018-07-12T06:05:01.623Z,71.98
2018-07-12T06:08:04.758Z,73.69
2018-07-12T06:11:07.991Z,78.56
2018-07-12T06:14:11.455Z,79.92
2018-07-12T06:17:19.921Z,80.14
2018-07-12T06:20:24.147Z,82.90
2018-07-12T06:23:27.391Z,83.48
2018-07-12T06:26:31.852Z,82.09
2018-07-12T06:29:35.231Z,81.96
2018-07-12T06:32:40.288Z,80.38
2018-07-12T06:35:45.430Z,80.40
2018-07-12T06:38:52.498Z,79.49
2018-07-12T06:41:56.571Z,78.26
2018-07-12T06:45:06.274Z,78.04
2018-07-12T06:48:09.698Z,77.06
2018-07-12T06:51:12.998Z,77.26
2018-07-12T06:54:21.031Z,77.83
2018-07-12T06:57:24.098Z,76.67
2018-07-12T07:00:27.117Z,75.09
2018-07-12T07:03:30.213Z,73.64
2018-07-12T07:06:34.486Z,71.59
2018-07-12T07:09:37.799Z,66.90
2018-07-12T07:12:41.180Z,60.40
2018-07-12T07:15:45.713Z,62.26
2018-07-12T07:18:49.242Z,64.12
2018-07-12T07:21:54.603Z,66.92
2018-07-12T07:24:57.955Z,69.86
2018-07-12T07:28:02.475Z,70.30
2018-07-12T07:31:05.913Z,68.20
2018-07-12T07:34:13.816Z,68.76
2018-07-12T07:37:17.046Z,68.13
2018-07-12T07:40:20.055Z,68.84
2018-07-12T07:43:23.233Z,67.11
2018-07-12T07:46:26.242Z,65.92
2018-07-12T07:49:35.877Z,64.10
2018-07-12T07:52:42.345Z,63.49
2018-07-12T07:55:45.523Z,65.62
2018-07-12T07:58:48.805Z,65.69
2018-07-12T08:01:54.114Z,66.30
2018-07-12T08:04:57.324Z,66.86
2018-07-12T08:08:07.184Z,65.10
2018-07-12T08:11:13.530Z,65.33
2018-07-12T08:14:17.534Z,65.17
2018-07-12T08:17:26.371Z,62.14
2018-07-12T08:20:33.742Z,63.33
2018-07-12T08:23:37.604Z,62.10
2018-07-12T08:26:45.545Z,58.84
2018-07-12T08:29:48.934Z,60.01
2018-07-12T08:32:52.444Z,60.91
2018-07-12T08:35:56.926Z,59.81
2018-07-12T08:39:00.318Z,58.94
2018-07-12T08:42:03.628Z,57.05
2018-07-12T08:45:08.541Z,56.69
2018-07-12T08:48:15.857Z,56.45
2018-07-12T08:51:22.773Z,59.17
2018-07-12T08:54:27.142Z,57.49
2018-07-12T08:57:31.660Z,55.71
2018-07-12T09:00:35.335Z,52.40
2018-07-12T09:03:38.565Z,52.74
2018-07-12T09:06:41.577Z,56.69
2018-07-12T09:09:44.741Z,59.20
2018-07-12T09:12:48.822Z,56.27
2018-07-12T09:15:52.039Z,53.87
2018-07-12T09:18:55.154Z,54.62
2018-07-12T09:24:54.698Z,54.29
2018-07-12T09:27:57.378Z,54.30
2018-07-12T09:30:59.987Z,54.59
2018-07-12T09:34:02.429Z,53.69
2018-07-12T09:37:11.006Z,54.41
2018-07-12T09:40:16.615Z,54.07
2018-07-12T09:43:19.857Z,52.65
2018-07-12T09:46:27.654Z,48.50
2018-07-12T09:49:29.969Z,48.17
2018-07-12T09:52:33.231Z,48.77
2018-07-12T09:55:39.043Z,48.50
2018-07-12T09:58:42.020Z,45.90
2018-07-12T10:01:50.372Z,42.25
2018-07-12T10:04:52.805Z,41.99
2018-07-12T10:08:00.974Z,44.59
2018-07-12T10:11:06.065Z,49.84
2018-07-12T10:14:14.122Z,52.81
2018-07-12T10:17:22.051Z,50.70
2018-07-12T10:20:25.513Z,50.65
2018-07-12T10:23:27.669Z,50.92
2018-07-12T10:26:30.006Z,49.98
2018-07-12T10:29:32.255Z,48.07
2018-07-12T10:32:34.460Z,47.60
2018-07-12T10:35:36.762Z,46.82
2018-07-12T10:38:39.939Z,44.32
2018-07-12T10:41:42.217Z,48.77
2018-07-12T10:44:51.253Z,50.72
2018-07-12T10:47:53.551Z,50.05
2018-07-12T10:50:55.900Z,49.12
2018-07-12T10:53:58.163Z,48.67
2018-07-12T10:57:00.362Z,48.82
2018-07-12T11:00:05.336Z,46.68
2018-07-12T11:03:08.070Z,46.23
2018-07-12T11:06:10.502Z,49.85
2018-07-12T11:09:12.968Z,50.08
2018-07-12T11:12:15.264Z,50.11
2018-07-12T11:15:17.591Z,45.84
2018-07-12T11:18:19.877Z,44.21
2018-07-12T11:21:22.180Z,43.94
2018-07-12T11:24:24.481Z,46.76
2018-07-12T11:27:28.770Z,47.54
2018-07-12T11:30:31.716Z,48.51
2018-07-12T11:33:40.048Z,47.62
2018-07-12T11:36:42.387Z,45.80
2018-07-12T11:39:44.660Z,43.08
2018-07-12T11:43:18.246Z,41.67
2018-07-12T11:46:20.566Z,43.14
2018-07-12T11:49:22.890Z,45.37
2018-07-12T11:52:25.155Z,44.32
2018-07-12T11:55:27.573Z,44.08
2018-07-12T11:58:31.353Z,45.27
2018-07-12T12:01:34.850Z,44.04
2018-07-12T12:04:50.494Z,43.50
2018-07-12T12:08:00.962Z,43.32
2018-07-12T12:14:30.535Z,43.45
2018-07-12T12:23:21.852Z,43.44
2018-07-12T12:26:34.947Z,44.35
2018-07-12T12:29:56.586Z,43.62
2018-07-12T12:33:12.191Z,44.31
2018-07-12T12:36:26.550Z,44.62
2018-07-12T12:39:54.191Z,43.82
2018-07-12T12:42:59.624Z,43.52
2018-07-12T12:46:02.837Z,47.08
2018-07-12T12:49:12.670Z,45.73
2018-07-12T12:52:24.681Z,45.69
2018-07-12T12:55:26.938Z,45.35
2018-07-12T12:58:36.046Z,41.53
2018-07-12T13:01:38.257Z,38.89
2018-07-12T13:04:46.165Z,39.30
2018-07-12T13:07:51.944Z,38.17
2018-07-12T13:10:54.205Z,38.65
2018-07-12T13:14:15.931Z,40.04
2018-07-12T13:17:20.169Z,39.56
2018-07-12T13:20:22.370Z,41.07
2018-07-12T13:23:29.795Z,43.04
2018-07-12T13:26:44.162Z,43.84
2018-07-12T13:29:51.227Z,43.10
2018-07-12T13:32:53.508Z,42.63
2018-07-12T13:35:57.734Z,42.38
2018-07-12T13:38:59.940Z,42.37
2018-07-12T13:42:04.272Z,41.71
2018-07-12T13:45:12.293Z,41.87
2018-07-12T13:48:15.517Z,45.21
2018-07-12T13:51:17.821Z,44.56
2018-07-12T13:54:21.118Z,44.23
2018-07-12T13:57:24.456Z,45.85
2018-07-12T14:00:27.690Z,47.24
2018-07-12T14:03:36.257Z,44.24
2018-07-12T14:06:41.559Z,43.00
2018-07-12T14:09:43.745Z,43.44
2018-07-12T14:12:47.036Z,42.15
2018-07-12T14:15:50.333Z,41.65
2018-07-12T14:18:52.660Z,39.16
2018-07-12T14:21:55.881Z,41.00
2018-07-12T14:24:58.066Z,40.07
2018-07-12T14:28:02.385Z,39.73
2018-07-12T14:31:04.609Z,41.07
2018-07-12T14:34:07.824Z,42.58
2018-07-12T14:37:14.417Z,44.46
2018-07-12T14:40:16.613Z,44.37
2018-07-12T14:43:18.886Z,42.06
2018-07-12T14:46:22.174Z,40.58
2018-07-12T14:49:32.077Z,40.70
2018-07-12T14:52:36.383Z,39.98
2018-07-12T14:55:42.203Z,42.01
2018-07-12T14:58:46.447Z,41.94
2018-07-12T15:01:49.688Z,40.75
2018-07-12T15:04:51.924Z,40.91
2018-07-12T15:07:58.165Z,42.25
2018-07-12T15:11:00.393Z,41.58
2018-07-12T15:14:03.656Z,45.95
2018-07-12T15:17:06.870Z,46.84
2018-07-12T15:20:13.452Z,47.24
2018-07-12T15:23:15.709Z,46.97
2018-07-12T15:26:20.053Z,47.92
2018-07-12T15:29:22.220Z,47.90
2018-07-12T15:32:26.432Z,44.66
2018-07-12T15:35:28.704Z,42.00
2018-07-12T15:38:31.001Z,43.55
2018-07-12T15:41:37.104Z,46.33
2018-07-12T15:44:40.365Z,46.00
2018-07-12T15:47:42.613Z,46.17
2018-07-12T15:50:44.814Z,43.86
2018-07-12T15:53:52.865Z,42.09
2018-07-12T15:56:56.061Z,42.48
2018-07-12T15:59:58.326Z,42.42
2018-07-12T16:03:00.598Z,45.82
2018-07-12T16:06:03.973Z,45.37
2018-07-12T16:09:09.001Z,45.58
2018-07-12T16:12:11.232Z,44.50
2018-07-12T16:15:14.433Z,44.90
2018-07-12T16:18:17.745Z,44.03
2018-07-12T16:21:19.965Z,46.85
2018-07-12T16:24:23.148Z,48.98
2018-07-12T16:27:29.928Z,48.22
2018-07-12T16:30:32.226Z,47.82
2018-07-12T16:33:34.430Z,47.08
2018-07-12T16:36:36.642Z,47.08
2018-07-12T16:39:39.843Z,45.90
2018-07-12T16:42:43.721Z,47.49
2018-07-12T16:45:46.941Z,47.78
2018-07-12T16:48:49.132Z,50.08
2018-07-12T16:51:51.625Z,49.14
2018-07-12T16:54:53.918Z,49.14
2018-07-12T16:57:57.324Z,49.30
2018-07-12T17:00:59.552Z,50.37
2018-07-12T17:04:03.851Z,49.64
2018-07-12T17:07:08.116Z,48.34
2018-07-12T17:10:11.377Z,48.97
2018-07-12T17:13:13.651Z,47.57
2018-07-12T17:16:17.893Z,47.13
2018-07-12T17:19:37.233Z,47.72
2018-07-12T17:22:39.417Z,44.03
2018-07-12T17:25:41.630Z,45.04
2018-07-12T17:28:44.969Z,45.12
2018-07-12T17:31:49.201Z,43.27
2018-07-12T17:34:54.991Z,44.20
2018-07-12T17:37:57.220Z,42.61
2018-07-12T17:40:59.535Z,42.90
2018-07-12T17:44:03.809Z,43.85
2018-07-12T17:47:06.163Z,43.99
2018-07-12T17:50:08.352Z,43.80
2018-07-12T17:53:10.648Z,44.66
2018-07-12T17:56:12.865Z,45.96
2018-07-12T17:59:26.498Z,47.98
2018-07-12T18:02:31.200Z,48.93
2018-07-12T18:05:33.512Z,50.14
2018-07-12T18:08:35.881Z,50.73
2018-07-12T18:12:57.084Z,51.99
2018-07-12T18:16:49.165Z,52.66
2018-07-12T18:23:23.308Z,55.10
2018-07-12T18:26:56.199Z,54.73
2018-07-12T18:30:10.855Z,55.53
2018-07-12T18:33:13.494Z,56.41
2018-07-12T18:36:16.179Z,56.01
2018-07-12T18:39:18.730Z,56.95
2018-07-12T18:42:21.328Z,57.22
2018-07-12T18:45:23.689Z,57.79
2018-07-12T18:48:25.945Z,59.09
2018-07-12T18:51:28.234Z,59.42
2018-07-12T18:54:30.649Z,60.61
2018-07-12T18:57:37.227Z,61.56
2018-07-12T19:00:39.623Z,62.17
2018-07-12T19:03:41.981Z,62.04
2018-07-12T19:06:44.398Z,61.95
2018-07-12T19:09:46.797Z,61.56
2018-07-12T19:12:49.156Z,62.03
2018-07-12T19:15:51.813Z,63.05
2018-07-12T19:18:54.462Z,63.63
2018-07-12T19:21:57.151Z,64.68
2018-07-12T19:24:59.779Z,65.31
2018-07-12T19:28:02.434Z,66.98
2018-07-12T19:31:05.157Z,68.08
2018-07-12T19:34:08.886Z,69.22
2018-07-12T19:37:11.447Z,70.20
2018-07-12T19:40:14.275Z,71.88
2018-07-12T19:43:16.794Z,73.77
2018-07-12T19:46:19.319Z,74.11
2018-07-12T19:49:21.920Z,74.75
2018-07-12T19:52:24.363Z,76.16
2018-07-12T19:55:26.721Z,77.25
2018-07-12T19:58:29.089Z,77.83
2018-07-12T20:01:31.443Z,78.50
2018-07-12T20:04:33.749Z,79.76
2018-07-12T20:07:37.067Z,79.82
2018-07-12T20:10:39.431Z,80.75
2018-07-12T20:13:42.013Z,81.65
2018-07-12T20:16:45.506Z,82.12
2018-07-12T20:19:48.023Z,81.84
2018-07-12T20:22:51.500Z,82.65
2018-07-12T20:25:53.865Z,82.34
2018-07-12T20:28:56.347Z,82.89
2018-07-12T20:31:58.701Z,83.86
2018-07-12T20:35:01.145Z,84.36
2018-07-12T20:38:03.473Z,85.37
2018-07-12T20:41:10.168Z,85.70
2018-07-12T20:44:12.577Z,86.91
2018-07-12T20:47:14.845Z,87.88
2018-07-12T20:50:17.230Z,87.74
2018-07-12T20:53:19.622Z,88.36
2018-07-12T20:56:21.959Z,88.47
2018-07-12T20:59:24.503Z,87.96
2018-07-12T21:02:27.099Z,87.02
2018-07-12T21:05:29.550Z,87.35
2018-07-12T21:08:31.952Z,87.44
2018-07-12T21:11:34.326Z,87.87
2018-07-12T21:14:36.759Z,87.61
2018-07-12T21:17:39.272Z,88.35
2018-07-12T21:20:41.807Z,88.25
2018-07-12T21:23:44.317Z,87.91
2018-07-12T21:26:46.554Z,88.19
2018-07-12T21:29:48.881Z,88.30
2018-07-12T21:32:51.205Z,88.94
2018-07-12T21:35:53.599Z,89.18
2018-07-12T21:38:56.081Z,89.60
2018-07-12T21:41:58.425Z,89.36
2018-07-12T21:45:00.938Z,89.66
2018-07-12T21:48:03.372Z,89.83
2018-07-12T21:51:05.810Z,89.22
2018-07-12T21:54:08.815Z,89.18
2018-07-12T21:57:11.434Z,88.96
2018-07-12T22:00:15.076Z,89.54
2018-07-12T22:03:17.809Z,89.28
2018-07-12T22:08:33.516Z,89.39
2018-07-12T22:11:39.571Z,89.53
2018-07-12T22:14:41.877Z,88.66
2018-07-12T22:17:46.257Z,89.20
2018-07-12T22:20:48.636Z,89.19
2018-07-12T22:23:51.022Z,90.53
2018-07-12T22:26:57.908Z,89.95
2018-07-12T22:30:04.130Z,89.90
2018-07-12T22:33:08.888Z,89.92
2018-07-12T22:36:11.389Z,89.86
2018-07-12T22:39:19.091Z,90.85
2018-07-12T22:42:21.525Z,90.58
2018-07-12T22:45:24.109Z,90.50
2018-07-12T22:48:27.629Z,90.88
2018-07-12T22:51:39.880Z,90.75
2018-07-12T22:54:42.460Z,90.78
2018-07-12T22:57:46.020Z,90.81
2018-07-12T23:00:49.614Z,90.28
2018-07-12T23:03:54.010Z,90.39
2018-07-12T23:06:56.610Z,91.28
2018-07-12T23:09:59.023Z,90.83
2018-07-12T23:13:02.599Z,90.48
2018-07-12T23:16:05.103Z,90.74
2018-07-12T23:19:07.703Z,90.88
2018-07-12T23:22:10.175Z,91.02
2018-07-12T23:25:12.631Z,90.45
2018-07-12T23:28:14.979Z,91.30
2018-07-12T23:31:18.411Z,90.95
2018-07-12T23:34:20.982Z,91.04
2018-07-12T23:37:23.589Z,91.97
2018-07-12T23:40:26.137Z,91.58
2018-07-12T23:43:28.637Z,92.12
2018-07-12T23:46:31.097Z,92.49
2018-07-12T23:49:33.465Z,92.60
2018-07-12T23:52:35.896Z,92.45
2018-07-12T23:55:38.251Z,92.79
2018-07-12T23:58:40.638Z,92.90
